sensor_id;sensor_type;location;lat;lon;timestamp;P1;durP1;ratioP1;P2;durP2;ratioP2
24259;SDS011;12384;48.112;18.418;2022-07-18T11:49:29;7.55;;;5.32;;
24259;SDS011;12384;48.112;18.418;2022-07-18T11:51:57;8.93;;;4.40;;
24259;SDS011;12384;48.112;18.418;2022-07-18T11:54:26;8.80;;;5.28;;
24259;SDS011;12384;48.112;18.418;2022-07-18T11:56:55;4.70;;;4.40;;
24259;SDS011;12384;48.112;18.418;2022-07-18T11:59:34;8.57;;;5.10;;
24259;SDS011;12384;48.112;18.418;2022-07-18T12:02:03;11.60;;;5.70;;
24259;SDS011;12384;48.112;18.418;2022-07-18T12:04:34;15.55;;;6.95;;
24259;SDS011;12384;48.112;18.418;2022-07-18T12:07:13;7.60;;;6.18;;
24259;SDS011;12384;48.112;18.418;2022-07-18T12:09:44;13.52;;;5.30;;
24259;SDS011;12384;48.112;18.418;2022-07-18T12:12:13;15.88;;;5.57;;
24259;SDS011;12384;48.112;18.418;2022-07-18T12:14:53;6.10;;;4.00;;
24259;SDS011;12384;48.112;18.418;2022-07-18T12:17:22;9.68;;;5.07;;
24259;SDS011;12384;48.112;18.418;2022-07-18T12:20:07;7.43;;;4.60;;
24259;SDS011;12384;48.112;18.418;2022-07-18T12:25:37;8.57;;;6.60;;
24259;SDS011;12384;48.112;18.418;2022-07-18T12:28:13;6.20;;;5.72;;
24259;SDS011;12384;48.112;18.418;2022-07-18T12:30:43;6.05;;;5.65;;
24259;SDS011;12384;48.112;18.418;2022-07-18T12:33:13;9.35;;;6.53;;
24259;SDS011;12384;48.112;18.418;2022-07-18T12:35:43;9.02;;;7.80;;
24259;SDS011;12384;48.112;18.418;2022-07-18T12:38:12;7.63;;;7.00;;
24259;SDS011;12384;48.112;18.418;2022-07-18T12:40:43;7.80;;;7.30;;
24259;SDS011;12384;48.112;18.418;2022-07-18T12:43:15;7.88;;;7.32;;
24259;SDS011;12384;48.112;18.418;2022-07-18T12:45:51;9.85;;;8.90;;
24259;SDS011;12384;48.112;18.418;2022-07-18T12:48:21;10.52;;;9.38;;
24259;SDS011;12384;48.112;18.418;2022-07-18T12:50:58;9.63;;;9.02;;
24259;SDS011;12384;48.112;18.418;2022-07-18T12:53:30;9.80;;;9.10;;
24259;SDS011;12384;48.112;18.418;2022-07-18T12:56:00;10.30;;;9.60;;
24259;SDS011;12384;48.112;18.418;2022-07-18T12:58:29;10.27;;;9.35;;
24259;SDS011;12384;48.112;18.418;2022-07-18T13:00:58;10.43;;;9.73;;
24259;SDS011;12384;48.112;18.418;2022-07-18T13:03:33;10.60;;;9.80;;
24259;SDS011;12384;48.112;18.418;2022-07-18T13:06:04;10.27;;;9.60;;
24259;SDS011;12384;48.112;18.418;2022-07-18T13:08:33;10.80;;;10.10;;
24259;SDS011;12384;48.112;18.418;2022-07-18T13:11:02;11.55;;;10.32;;
24259;SDS011;12384;48.112;18.418;2022-07-18T13:13:31;11.90;;;11.00;;
24259;SDS011;12384;48.112;18.418;2022-07-18T13:16:00;12.30;;;11.30;;
24259;SDS011;12384;48.112;18.418;2022-07-18T13:18:29;16.00;;;11.45;;
24259;SDS011;12384;48.112;18.418;2022-07-18T13:20:58;11.30;;;10.25;;
24259;SDS011;12384;48.112;18.418;2022-07-18T13:23:28;11.45;;;10.43;;
24259;SDS011;12384;48.112;18.418;2022-07-18T13:25:57;10.60;;;10.00;;
24259;SDS011;12384;48.112;18.418;2022-07-18T13:40:49;13.43;;;12.23;;
24259;SDS011;12384;48.112;18.418;2022-07-18T13:43:18;14.40;;;13.50;;
24259;SDS011;12384;48.112;18.418;2022-07-18T13:45:47;12.57;;;11.65;;
24259;SDS011;12384;48.112;18.418;2022-07-18T13:48:16;12.18;;;11.48;;
24259;SDS011;12384;48.112;18.418;2022-07-18T13:50:44;14.18;;;12.88;;
24259;SDS011;12384;48.112;18.418;2022-07-18T13:53:13;13.60;;;12.70;;
24259;SDS011;12384;48.112;18.418;2022-07-18T13:55:42;13.90;;;12.60;;
24259;SDS011;12384;48.112;18.418;2022-07-18T13:58:12;13.45;;;12.40;;
24259;SDS011;12384;48.112;18.418;2022-07-18T14:00:47;13.52;;;12.23;;
24259;SDS011;12384;48.112;18.418;2022-07-18T14:03:16;12.88;;;11.93;;
24259;SDS011;12384;48.112;18.418;2022-07-18T14:05:47;12.38;;;11.50;;
24259;SDS011;12384;48.112;18.418;2022-07-18T14:08:16;10.73;;;9.93;;
24259;SDS011;12384;48.112;18.418;2022-07-18T14:10:45;10.70;;;9.90;;
24259;SDS011;12384;48.112;18.418;2022-07-18T14:13:15;9.75;;;8.95;;
24259;SDS011;12384;48.112;18.418;2022-07-18T14:15:44;11.65;;;10.20;;
24259;SDS011;12384;48.112;18.418;2022-07-18T14:18:20;12.18;;;11.02;;
24259;SDS011;12384;48.112;18.418;2022-07-18T14:20:48;9.68;;;8.90;;
24259;SDS011;12384;48.112;18.418;2022-07-18T14:23:17;9.65;;;8.85;;
24259;SDS011;12384;48.112;18.418;2022-07-18T14:25:46;11.32;;;9.00;;
24259;SDS011;12384;48.112;18.418;2022-07-18T14:28:16;11.80;;;8.52;;
24259;SDS011;12384;48.112;18.418;2022-07-18T14:30:45;7.22;;;5.63;;
24259;SDS011;12384;48.112;18.418;2022-07-18T14:33:13;6.38;;;5.88;;
24259;SDS011;12384;48.112;18.418;2022-07-18T14:35:42;6.97;;;6.30;;
24259;SDS011;12384;48.112;18.418;2022-07-18T14:38:11;7.10;;;6.60;;
24259;SDS011;12384;48.112;18.418;2022-07-18T14:40:39;7.00;;;6.40;;
24259;SDS011;12384;48.112;18.418;2022-07-18T14:43:09;7.80;;;7.10;;
24259;SDS011;12384;48.112;18.418;2022-07-18T14:45:39;8.32;;;7.72;;
24259;SDS011;12384;48.112;18.418;2022-07-18T14:48:27;8.63;;;7.90;;
24259;SDS011;12384;48.112;18.418;2022-07-18T14:50:56;8.38;;;7.68;;
24259;SDS011;12384;48.112;18.418;2022-07-18T14:53:25;8.27;;;7.78;;
24259;SDS011;12384;48.112;18.418;2022-07-18T14:55:54;8.50;;;7.65;;
24259;SDS011;12384;48.112;18.418;2022-07-18T14:58:23;9.50;;;8.77;;
24259;SDS011;12384;48.112;18.418;2022-07-18T15:00:53;7.97;;;7.43;;
24259;SDS011;12384;48.112;18.418;2022-07-18T15:03:22;9.50;;;8.18;;
24259;SDS011;12384;48.112;18.418;2022-07-18T15:06:11;8.88;;;8.10;;
24259;SDS011;12384;48.112;18.418;2022-07-18T15:08:39;9.00;;;8.50;;
24259;SDS011;12384;48.112;18.418;2022-07-18T15:11:08;9.48;;;8.60;;
24259;SDS011;12384;48.112;18.418;2022-07-18T15:13:37;10.45;;;9.73;;
24259;SDS011;12384;48.112;18.418;2022-07-18T15:16:07;10.30;;;9.70;;
24259;SDS011;12384;48.112;18.418;2022-07-18T15:18:36;9.25;;;8.65;;
24259;SDS011;12384;48.112;18.418;2022-07-18T15:21:05;9.63;;;8.98;;
24259;SDS011;12384;48.112;18.418;2022-07-18T15:23:34;9.80;;;9.10;;
24259;SDS011;12384;48.112;18.418;2022-07-18T15:26:02;11.18;;;10.48;;
24259;SDS011;12384;48.112;18.418;2022-07-18T15:28:31;12.43;;;10.20;;
24259;SDS011;12384;48.112;18.418;2022-07-18T15:31:00;13.02;;;11.82;;
24259;SDS011;12384;48.112;18.418;2022-07-18T15:33:30;12.70;;;11.80;;
24259;SDS011;12384;48.112;18.418;2022-07-18T15:35:59;12.80;;;11.93;;
24259;SDS011;12384;48.112;18.418;2022-07-18T15:38:28;12.30;;;11.30;;
24259;SDS011;12384;48.112;18.418;2022-07-18T15:40:56;12.27;;;11.38;;
24259;SDS011;12384;48.112;18.418;2022-07-18T15:43:29;11.93;;;11.02;;
24259;SDS011;12384;48.112;18.418;2022-07-18T15:46:04;13.13;;;11.90;;
24259;SDS011;12384;48.112;18.418;2022-07-18T15:48:34;12.93;;;11.68;;
24259;SDS011;12384;48.112;18.418;2022-07-18T15:51:03;13.05;;;12.15;;
24259;SDS011;12384;48.112;18.418;2022-07-18T15:53:34;12.73;;;11.77;;
24259;SDS011;12384;48.112;18.418;2022-07-18T15:56:03;14.75;;;13.65;;
24259;SDS011;12384;48.112;18.418;2022-07-18T15:58:33;12.57;;;11.77;;
24259;SDS011;12384;48.112;18.418;2022-07-18T16:01:04;12.23;;;11.38;;
24259;SDS011;12384;48.112;18.418;2022-07-18T16:03:35;11.38;;;10.65;;
24259;SDS011;12384;48.112;18.418;2022-07-18T16:06:04;11.20;;;10.20;;
24259;SDS011;12384;48.112;18.418;2022-07-18T16:08:32;11.18;;;10.38;;
24259;SDS011;12384;48.112;18.418;2022-07-18T16:11:01;13.27;;;12.18;;
24259;SDS011;12384;48.112;18.418;2022-07-18T16:13:30;27.20;;;11.63;;
24259;SDS011;12384;48.112;18.418;2022-07-18T16:15:59;12.25;;;10.95;;
24259;SDS011;12384;48.112;18.418;2022-07-18T16:18:27;10.30;;;9.65;;
24259;SDS011;12384;48.112;18.418;2022-07-18T16:20:58;10.23;;;9.52;;
24259;SDS011;12384;48.112;18.418;2022-07-18T16:23:26;10.55;;;9.85;;
24259;SDS011;12384;48.112;18.418;2022-07-18T16:25:55;9.48;;;8.85;;
24259;SDS011;12384;48.112;18.418;2022-07-18T16:28:24;10.52;;;9.60;;
24259;SDS011;12384;48.112;18.418;2022-07-18T16:30:54;10.98;;;9.95;;
24259;SDS011;12384;48.112;18.418;2022-07-18T16:33:23;10.43;;;9.82;;
24259;SDS011;12384;48.112;18.418;2022-07-18T16:35:52;10.25;;;9.50;;
24259;SDS011;12384;48.112;18.418;2022-07-18T16:38:22;9.88;;;9.07;;
24259;SDS011;12384;48.112;18.418;2022-07-18T16:40:51;9.48;;;8.77;;
24259;SDS011;12384;48.112;18.418;2022-07-18T16:43:20;9.07;;;8.57;;
24259;SDS011;12384;48.112;18.418;2022-07-18T16:45:49;11.25;;;10.43;;
24259;SDS011;12384;48.112;18.418;2022-07-18T16:48:24;10.80;;;9.90;;
24259;SDS011;12384;48.112;18.418;2022-07-18T16:50:53;9.52;;;8.93;;
24259;SDS011;12384;48.112;18.418;2022-07-18T16:53:24;10.48;;;9.48;;
24259;SDS011;12384;48.112;18.418;2022-07-18T16:55:54;13.45;;;11.63;;
24259;SDS011;12384;48.112;18.418;2022-07-18T16:58:23;12.13;;;10.90;;
24259;SDS011;12384;48.112;18.418;2022-07-18T17:00:52;14.73;;;11.40;;
24259;SDS011;12384;48.112;18.418;2022-07-18T17:03:21;11.93;;;10.90;;
24259;SDS011;12384;48.112;18.418;2022-07-18T17:05:50;12.77;;;11.77;;
24259;SDS011;12384;48.112;18.418;2022-07-18T17:08:20;11.63;;;10.80;;
24259;SDS011;12384;48.112;18.418;2022-07-18T17:10:50;11.50;;;10.70;;
24259;SDS011;12384;48.112;18.418;2022-07-18T17:13:20;10.77;;;10.18;;
24259;SDS011;12384;48.112;18.418;2022-07-18T17:15:49;11.32;;;10.52;;
24259;SDS011;12384;48.112;18.418;2022-07-18T17:18:19;11.38;;;10.57;;
24259;SDS011;12384;48.112;18.418;2022-07-18T17:20:48;11.95;;;10.95;;
24259;SDS011;12384;48.112;18.418;2022-07-18T17:23:17;10.98;;;10.10;;
24259;SDS011;12384;48.112;18.418;2022-07-18T17:25:46;12.52;;;11.00;;
24259;SDS011;12384;48.112;18.418;2022-07-18T17:28:16;11.48;;;10.48;;
24259;SDS011;12384;48.112;18.418;2022-07-18T17:30:45;11.60;;;10.60;;
24259;SDS011;12384;48.112;18.418;2022-07-18T17:33:14;11.30;;;10.40;;
24259;SDS011;12384;48.112;18.418;2022-07-18T17:35:57;12.48;;;11.43;;
24259;SDS011;12384;48.112;18.418;2022-07-18T17:38:28;12.20;;;11.15;;
24259;SDS011;12384;48.112;18.418;2022-07-18T17:40:57;11.23;;;10.52;;
24259;SDS011;12384;48.112;18.418;2022-07-18T17:43:36;12.13;;;11.10;;
24259;SDS011;12384;48.112;18.418;2022-07-18T17:46:08;11.93;;;10.68;;
24259;SDS011;12384;48.112;18.418;2022-07-18T17:48:37;12.13;;;11.23;;
24259;SDS011;12384;48.112;18.418;2022-07-18T17:51:07;11.98;;;11.00;;
24259;SDS011;12384;48.112;18.418;2022-07-18T17:53:36;11.25;;;10.55;;
24259;SDS011;12384;48.112;18.418;2022-07-18T17:56:05;10.73;;;9.93;;
24259;SDS011;12384;48.112;18.418;2022-07-18T17:58:47;11.40;;;10.70;;
24259;SDS011;12384;48.112;18.418;2022-07-18T18:01:15;10.20;;;9.60;;
24259;SDS011;12384;48.112;18.418;2022-07-18T18:03:45;11.80;;;10.80;;
24259;SDS011;12384;48.112;18.418;2022-07-18T18:06:16;10.35;;;9.70;;
24259;SDS011;12384;48.112;18.418;2022-07-18T18:08:45;10.52;;;9.63;;
24259;SDS011;12384;48.112;18.418;2022-07-18T18:11:14;9.82;;;9.23;;
24259;SDS011;12384;48.112;18.418;2022-07-18T18:13:49;9.90;;;9.30;;
24259;SDS011;12384;48.112;18.418;2022-07-18T18:16:19;10.00;;;9.30;;
24259;SDS011;12384;48.112;18.418;2022-07-18T18:18:47;9.83;;;9.23;;
24259;SDS011;12384;48.112;18.418;2022-07-18T18:21:16;10.65;;;10.00;;
24259;SDS011;12384;48.112;18.418;2022-07-18T18:23:45;10.73;;;9.88;;
24259;SDS011;12384;48.112;18.418;2022-07-18T18:26:14;10.90;;;10.13;;
24259;SDS011;12384;48.112;18.418;2022-07-18T18:28:42;9.97;;;9.37;;
24259;SDS011;12384;48.112;18.418;2022-07-18T18:31:12;11.43;;;10.30;;
24259;SDS011;12384;48.112;18.418;2022-07-18T18:33:41;11.65;;;10.75;;
24259;SDS011;12384;48.112;18.418;2022-07-18T18:36:10;10.73;;;9.83;;
24259;SDS011;12384;48.112;18.418;2022-07-18T18:38:38;12.07;;;11.10;;
24259;SDS011;12384;48.112;18.418;2022-07-18T18:41:07;11.67;;;10.97;;
24259;SDS011;12384;48.112;18.418;2022-07-18T18:43:36;11.27;;;10.60;;
24259;SDS011;12384;48.112;18.418;2022-07-18T18:46:05;10.70;;;10.10;;
24259;SDS011;12384;48.112;18.418;2022-07-18T18:48:35;11.57;;;10.53;;
24259;SDS011;12384;48.112;18.418;2022-07-18T18:51:04;18.97;;;11.83;;
24259;SDS011;12384;48.112;18.418;2022-07-18T18:53:33;11.43;;;10.50;;
24259;SDS011;12384;48.112;18.418;2022-07-18T18:56:02;10.80;;;10.20;;
24259;SDS011;12384;48.112;18.418;2022-07-18T18:58:30;10.77;;;9.83;;
24259;SDS011;12384;48.112;18.418;2022-07-18T19:00:59;11.43;;;10.53;;
24259;SDS011;12384;48.112;18.418;2022-07-18T19:03:28;20.57;;;11.13;;
24259;SDS011;12384;48.112;18.418;2022-07-18T19:05:58;14.67;;;10.67;;
24259;SDS011;12384;48.112;18.418;2022-07-18T19:08:27;10.30;;;9.70;;
24259;SDS011;12384;48.112;18.418;2022-07-18T19:10:55;10.00;;;9.40;;
24259;SDS011;12384;48.112;18.418;2022-07-18T19:13:24;11.00;;;10.17;;
24259;SDS011;12384;48.112;18.418;2022-07-18T19:15:53;10.80;;;10.20;;
24259;SDS011;12384;48.112;18.418;2022-07-18T19:18:22;10.30;;;9.80;;
24259;SDS011;12384;48.112;18.418;2022-07-18T19:20:50;9.97;;;9.37;;
24259;SDS011;12384;48.112;18.418;2022-07-18T19:23:20;10.63;;;9.93;;
24259;SDS011;12384;48.112;18.418;2022-07-18T19:25:49;10.20;;;9.43;;
24259;SDS011;12384;48.112;18.418;2022-07-18T19:28:18;10.10;;;9.50;;
24259;SDS011;12384;48.112;18.418;2022-07-18T19:30:47;9.73;;;9.03;;
24259;SDS011;12384;48.112;18.418;2022-07-18T19:33:15;10.27;;;9.77;;
24259;SDS011;12384;48.112;18.418;2022-07-18T19:35:44;8.93;;;8.43;;
24259;SDS011;12384;48.112;18.418;2022-07-18T19:38:13;9.53;;;8.93;;
24259;SDS011;12384;48.112;18.418;2022-07-18T19:40:43;9.53;;;8.93;;
24259;SDS011;12384;48.112;18.418;2022-07-18T19:43:12;10.43;;;9.63;;
24259;SDS011;12384;48.112;18.418;2022-07-18T19:49:22;10.60;;;10.00;;
24259;SDS011;12384;48.112;18.418;2022-07-18T19:51:50;10.30;;;9.70;;
24259;SDS011;12384;48.112;18.418;2022-07-18T19:54:19;9.80;;;9.10;;
24259;SDS011;12384;48.112;18.418;2022-07-18T19:56:49;10.67;;;9.93;;
24259;SDS011;12384;48.112;18.418;2022-07-18T19:59:18;10.57;;;9.87;;
24259;SDS011;12384;48.112;18.418;2022-07-18T20:01:47;9.60;;;9.10;;
24259;SDS011;12384;48.112;18.418;2022-07-18T20:04:16;9.07;;;8.47;;
24259;SDS011;12384;48.112;18.418;2022-07-18T20:06:45;8.83;;;8.43;;
24259;SDS011;12384;48.112;18.418;2022-07-18T20:09:13;9.77;;;9.17;;
24259;SDS011;12384;48.112;18.418;2022-07-18T20:11:43;9.30;;;8.70;;
24259;SDS011;12384;48.112;18.418;2022-07-18T20:14:16;11.20;;;9.70;;
24259;SDS011;12384;48.112;18.418;2022-07-18T20:16:45;9.97;;;9.37;;
24259;SDS011;12384;48.112;18.418;2022-07-18T20:19:14;10.33;;;9.53;;
24259;SDS011;12384;48.112;18.418;2022-07-18T20:21:43;9.77;;;9.23;;
24259;SDS011;12384;48.112;18.418;2022-07-18T20:24:12;10.20;;;9.60;;
24259;SDS011;12384;48.112;18.418;2022-07-18T20:26:40;10.13;;;9.53;;
24259;SDS011;12384;48.112;18.418;2022-07-18T20:29:09;11.83;;;11.00;;
24259;SDS011;12384;48.112;18.418;2022-07-18T20:31:39;10.80;;;9.60;;
24259;SDS011;12384;48.112;18.418;2022-07-18T20:34:08;10.40;;;9.60;;
24259;SDS011;12384;48.112;18.418;2022-07-18T20:36:37;10.43;;;9.77;;
24259;SDS011;12384;48.112;18.418;2022-07-18T20:39:06;11.23;;;10.37;;
24259;SDS011;12384;48.112;18.418;2022-07-18T20:41:34;10.03;;;9.43;;
24259;SDS011;12384;48.112;18.418;2022-07-18T20:44:03;9.70;;;8.90;;
24259;SDS011;12384;48.112;18.418;2022-07-18T20:46:32;10.40;;;9.77;;
24259;SDS011;12384;48.112;18.418;2022-07-18T20:49:02;10.23;;;9.50;;
24259;SDS011;12384;48.112;18.418;2022-07-18T20:51:31;9.80;;;9.23;;
24259;SDS011;12384;48.112;18.418;2022-07-18T20:54:07;10.00;;;9.43;;
24259;SDS011;12384;48.112;18.418;2022-07-18T20:56:36;10.00;;;9.40;;
24259;SDS011;12384;48.112;18.418;2022-07-18T20:59:05;10.57;;;9.97;;
24259;SDS011;12384;48.112;18.418;2022-07-18T21:01:34;11.30;;;10.40;;
24259;SDS011;12384;48.112;18.418;2022-07-18T21:04:04;10.40;;;9.80;;
24259;SDS011;12384;48.112;18.418;2022-07-18T21:06:33;10.40;;;9.80;;
24259;SDS011;12384;48.112;18.418;2022-07-18T21:09:02;9.77;;;9.10;;
24259;SDS011;12384;48.112;18.418;2022-07-18T21:11:32;10.27;;;9.53;;
24259;SDS011;12384;48.112;18.418;2022-07-18T21:14:01;9.93;;;9.43;;
24259;SDS011;12384;48.112;18.418;2022-07-18T21:16:50;10.33;;;9.73;;
24259;SDS011;12384;48.112;18.418;2022-07-18T21:19:20;10.17;;;9.57;;
24259;SDS011;12384;48.112;18.418;2022-07-18T21:21:49;9.97;;;9.47;;
24259;SDS011;12384;48.112;18.418;2022-07-18T21:24:18;10.37;;;9.60;;
24259;SDS011;12384;48.112;18.418;2022-07-18T21:26:46;9.70;;;9.20;;
24259;SDS011;12384;48.112;18.418;2022-07-18T21:29:15;9.50;;;8.90;;
24259;SDS011;12384;48.112;18.418;2022-07-18T21:31:44;9.60;;;9.10;;
24259;SDS011;12384;48.112;18.418;2022-07-18T21:34:13;9.33;;;8.83;;
24259;SDS011;12384;48.112;18.418;2022-07-18T21:36:43;10.30;;;9.60;;
24259;SDS011;12384;48.112;18.418;2022-07-18T21:39:12;10.10;;;9.50;;
24259;SDS011;12384;48.112;18.418;2022-07-18T21:41:41;11.00;;;10.00;;
24259;SDS011;12384;48.112;18.418;2022-07-18T21:44:10;12.63;;;11.60;;
24259;SDS011;12384;48.112;18.418;2022-07-18T21:46:39;11.60;;;10.40;;
24259;SDS011;12384;48.112;18.418;2022-07-18T21:49:07;11.53;;;10.63;;
24259;SDS011;12384;48.112;18.418;2022-07-18T21:51:36;11.00;;;10.10;;
24259;SDS011;12384;48.112;18.418;2022-07-18T21:54:06;11.03;;;10.33;;
24259;SDS011;12384;48.112;18.418;2022-07-18T21:56:35;10.47;;;9.87;;
24259;SDS011;12384;48.112;18.418;2022-07-18T21:59:04;10.50;;;9.90;;
24259;SDS011;12384;48.112;18.418;2022-07-18T22:01:32;10.40;;;9.77;;
24259;SDS011;12384;48.112;18.418;2022-07-18T22:04:02;10.27;;;9.67;;
24259;SDS011;12384;48.112;18.418;2022-07-18T22:06:34;9.90;;;9.30;;
24259;SDS011;12384;48.112;18.418;2022-07-18T22:09:03;10.07;;;9.37;;
24259;SDS011;12384;48.112;18.418;2022-07-18T22:11:34;9.97;;;9.30;;
24259;SDS011;12384;48.112;18.418;2022-07-18T22:14:04;10.03;;;9.43;;
24259;SDS011;12384;48.112;18.418;2022-07-18T22:16:32;9.93;;;9.33;;
24259;SDS011;12384;48.112;18.418;2022-07-18T22:19:01;10.60;;;9.93;;
24259;SDS011;12384;48.112;18.418;2022-07-18T22:21:31;10.20;;;9.60;;
24259;SDS011;12384;48.112;18.418;2022-07-18T22:24:00;10.20;;;9.60;;
24259;SDS011;12384;48.112;18.418;2022-07-18T22:26:29;10.20;;;9.70;;
24259;SDS011;12384;48.112;18.418;2022-07-18T22:28:59;10.40;;;9.80;;
24259;SDS011;12384;48.112;18.418;2022-07-18T22:31:28;10.10;;;9.60;;
24259;SDS011;12384;48.112;18.418;2022-07-18T22:33:57;10.20;;;9.50;;
24259;SDS011;12384;48.112;18.418;2022-07-18T22:36:26;10.13;;;9.63;;
24259;SDS011;12384;48.112;18.418;2022-07-18T22:38:55;10.23;;;9.63;;
24259;SDS011;12384;48.112;18.418;2022-07-18T22:41:24;10.70;;;9.97;;
24259;SDS011;12384;48.112;18.418;2022-07-18T22:43:53;10.40;;;9.90;;
24259;SDS011;12384;48.112;18.418;2022-07-18T22:46:23;11.40;;;10.60;;
24259;SDS011;12384;48.112;18.418;2022-07-18T22:48:52;10.40;;;9.90;;
24259;SDS011;12384;48.112;18.418;2022-07-18T22:51:21;10.60;;;10.00;;
24259;SDS011;12384;48.112;18.418;2022-07-18T22:53:50;10.67;;;10.07;;
24259;SDS011;12384;48.112;18.418;2022-07-18T22:56:19;10.00;;;9.50;;
24259;SDS011;12384;48.112;18.418;2022-07-18T22:58:47;10.27;;;9.67;;
24259;SDS011;12384;48.112;18.418;2022-07-18T23:01:16;10.37;;;9.87;;
24259;SDS011;12384;48.112;18.418;2022-07-18T23:03:46;10.40;;;9.80;;
24259;SDS011;12384;48.112;18.418;2022-07-18T23:06:16;13.47;;;12.23;;
24259;SDS011;12384;48.112;18.418;2022-07-18T23:08:44;11.10;;;10.37;;
24259;SDS011;12384;48.112;18.418;2022-07-18T23:11:15;11.93;;;11.07;;
24259;SDS011;12384;48.112;18.418;2022-07-18T23:13:43;11.30;;;10.60;;
24259;SDS011;12384;48.112;18.418;2022-07-18T23:16:12;11.20;;;10.50;;
24259;SDS011;12384;48.112;18.418;2022-07-18T23:18:41;11.37;;;10.67;;
24259;SDS011;12384;48.112;18.418;2022-07-18T23:21:11;10.60;;;10.00;;
24259;SDS011;12384;48.112;18.418;2022-07-18T23:23:40;10.80;;;10.20;;
24259;SDS011;12384;48.112;18.418;2022-07-18T23:26:09;11.73;;;10.93;;
24259;SDS011;12384;48.112;18.418;2022-07-18T23:28:38;11.03;;;10.40;;
24259;SDS011;12384;48.112;18.418;2022-07-18T23:31:07;15.00;;;13.33;;
24259;SDS011;12384;48.112;18.418;2022-07-18T23:33:36;12.97;;;11.97;;
24259;SDS011;12384;48.112;18.418;2022-07-18T23:36:04;12.23;;;11.23;;
24259;SDS011;12384;48.112;18.418;2022-07-18T23:38:35;13.17;;;11.97;;
24259;SDS011;12384;48.112;18.418;2022-07-18T23:41:04;12.57;;;11.53;;
24259;SDS011;12384;48.112;18.418;2022-07-18T23:43:32;11.80;;;10.90;;
24259;SDS011;12384;48.112;18.418;2022-07-18T23:46:01;12.50;;;11.50;;
24259;SDS011;12384;48.112;18.418;2022-07-18T23:48:30;11.33;;;10.50;;
24259;SDS011;12384;48.112;18.418;2022-07-18T23:50:59;11.33;;;10.63;;
24259;SDS011;12384;48.112;18.418;2022-07-18T23:53:28;11.17;;;10.57;;
24259;SDS011;12384;48.112;18.418;2022-07-18T23:55:58;11.20;;;10.60;;
24259;SDS011;12384;48.112;18.418;2022-07-18T23:58:27;11.13;;;10.53;;
